createdAt,value
2017-06-24T00:01:20.388Z,11.67
2017-06-24T00:03:47.820Z,11.30
2017-06-24T00:06:15.261Z,12.43
2017-06-24T00:08:42.701Z,11.57
2017-06-24T00:11:10.172Z,11.97
2017-06-24T00:13:38.455Z,11.17
2017-06-24T00:16:06.060Z,9.53
2017-06-24T00:18:33.508Z,11.30
2017-06-24T00:21:00.949Z,12.53
2017-06-24T00:23:28.406Z,12.40
2017-06-24T00:25:55.836Z,12.77
2017-06-24T00:28:23.274Z,12.00
2017-06-24T00:30:50.717Z,12.10
2017-06-24T00:33:18.168Z,11.50
2017-06-24T00:35:45.677Z,13.23
2017-06-24T00:38:13.121Z,12.30
2017-06-24T00:40:40.558Z,12.63
2017-06-24T00:43:07.996Z,11.83
2017-06-24T00:45:35.436Z,12.47
2017-06-24T00:48:02.884Z,11.27
2017-06-24T00:50:30.325Z,12.73
2017-06-24T00:52:57.764Z,13.40
2017-06-24T00:55:25.207Z,13.10
2017-06-24T00:57:52.639Z,12.83
2017-06-24T01:00:20.088Z,13.20
2017-06-24T01:02:47.546Z,12.40
2017-06-24T01:05:14.976Z,12.77
2017-06-24T01:07:42.420Z,11.90
2017-06-24T01:10:09.852Z,12.27
2017-06-24T01:12:37.305Z,12.60
2017-06-24T01:15:04.750Z,12.70
2017-06-24T01:17:32.184Z,11.60
2017-06-24T01:19:59.628Z,11.03
2017-06-24T01:22:27.070Z,11.97
2017-06-24T01:24:54.535Z,11.57
2017-06-24T01:27:21.970Z,10.70
2017-06-24T01:29:49.404Z,10.60
2017-06-24T01:32:16.844Z,10.40
2017-06-24T01:34:44.275Z,11.60
2017-06-24T01:37:11.733Z,12.10
2017-06-24T01:39:39.176Z,11.40
2017-06-24T01:42:06.611Z,12.10
2017-06-24T01:44:34.079Z,12.23
2017-06-24T01:47:01.618Z,11.97
2017-06-24T01:49:29.060Z,11.53
2017-06-24T01:51:56.497Z,11.30
2017-06-24T01:54:23.940Z,11.00
2017-06-24T01:56:51.388Z,12.50
2017-06-24T01:59:18.834Z,10.33
2017-06-24T02:01:46.281Z,11.53
2017-06-24T02:04:13.724Z,11.10
2017-06-24T02:06:41.157Z,11.87
2017-06-24T02:09:08.604Z,10.63
2017-06-24T02:11:36.050Z,10.70
2017-06-24T02:14:03.521Z,11.73
2017-06-24T02:16:30.956Z,10.50
2017-06-24T02:18:58.393Z,10.90
2017-06-24T02:21:25.836Z,11.00
2017-06-24T02:23:53.268Z,11.53
2017-06-24T02:26:20.731Z,12.23
2017-06-24T02:28:48.174Z,12.07
2017-06-24T02:31:15.612Z,11.80
2017-06-24T02:33:43.060Z,12.23
2017-06-24T02:36:10.499Z,10.93
2017-06-24T02:38:37.959Z,12.27
2017-06-24T02:41:06.160Z,11.47
2017-06-24T02:43:33.658Z,11.37
2017-06-24T02:46:01.098Z,12.27
2017-06-24T02:48:29.320Z,12.53
2017-06-24T02:50:56.761Z,12.33
2017-06-24T02:53:24.191Z,12.40
2017-06-24T02:55:51.632Z,12.50
2017-06-24T02:58:19.076Z,12.20
2017-06-24T03:00:46.513Z,11.97
2017-06-24T03:03:13.964Z,11.80
2017-06-24T03:05:41.400Z,11.90
2017-06-24T03:08:08.836Z,10.90
2017-06-24T03:10:36.281Z,13.13
2017-06-24T03:13:03.756Z,12.53
2017-06-24T03:15:31.220Z,12.83
2017-06-24T03:17:58.668Z,11.73
2017-06-24T03:20:26.108Z,12.20
2017-06-24T03:22:53.557Z,11.93
2017-06-24T03:25:21.756Z,11.53
2017-06-24T03:27:49.245Z,12.10
2017-06-24T03:30:16.664Z,11.47
2017-06-24T03:32:44.105Z,12.33
2017-06-24T03:35:11.577Z,12.40
2017-06-24T03:37:39.021Z,11.77
2017-06-24T03:40:06.489Z,12.77
2017-06-24T03:42:34.689Z,12.40
2017-06-24T03:45:02.119Z,12.80
2017-06-24T03:47:29.577Z,13.00
2017-06-24T03:49:57.011Z,13.07
2017-06-24T03:52:24.475Z,13.63
2017-06-24T03:54:51.920Z,12.90
2017-06-24T03:57:19.360Z,12.93
2017-06-24T03:59:46.810Z,11.80
2017-06-24T04:02:14.239Z,12.40
2017-06-24T04:04:41.684Z,12.10
2017-06-24T04:07:09.137Z,12.60
2017-06-24T04:09:36.579Z,12.20
2017-06-24T04:12:04.032Z,12.37
2017-06-24T04:14:31.473Z,11.67
2017-06-24T04:16:58.939Z,12.47
2017-06-24T04:19:27.146Z,12.70
2017-06-24T04:21:54.590Z,12.10
2017-06-24T04:24:22.036Z,11.03
2017-06-24T04:26:49.584Z,12.07
2017-06-24T04:29:17.048Z,11.40
2017-06-24T04:31:44.493Z,12.10
2017-06-24T04:34:11.928Z,12.53
2017-06-24T04:36:39.381Z,11.00
2017-06-24T04:39:06.820Z,11.27
2017-06-24T04:41:34.359Z,11.63
2017-06-24T04:44:01.792Z,11.67
2017-06-24T04:46:29.242Z,10.60
2017-06-24T04:48:56.681Z,11.10
2017-06-24T04:51:24.123Z,11.40
2017-06-24T04:53:51.612Z,11.23
2017-06-24T04:56:19.055Z,11.10
2017-06-24T04:58:47.252Z,15.50
2017-06-24T05:01:14.702Z,22.43
2017-06-24T05:03:42.136Z,11.57
2017-06-24T05:06:09.608Z,11.10
2017-06-24T05:08:37.088Z,11.60
2017-06-24T05:11:04.535Z,10.97
2017-06-24T05:13:31.980Z,11.17
2017-06-24T05:15:59.419Z,10.73
2017-06-24T05:18:26.878Z,10.57
2017-06-24T05:20:54.339Z,10.97
2017-06-24T05:23:21.761Z,10.80
2017-06-24T05:25:49.204Z,10.10
2017-06-24T05:28:16.641Z,10.60
2017-06-24T05:30:44.093Z,10.40
2017-06-24T05:33:11.532Z,11.40
2017-06-24T05:35:38.972Z,10.77
2017-06-24T05:38:06.481Z,10.10
2017-06-24T05:40:33.932Z,10.17
2017-06-24T05:43:02.148Z,10.23
2017-06-24T05:45:29.576Z,9.73
2017-06-24T05:47:57.261Z,9.90
2017-06-24T05:50:24.691Z,9.40
2017-06-24T05:52:52.134Z,9.73
2017-06-24T05:55:19.586Z,10.33
2017-06-24T05:57:47.012Z,9.47
2017-06-24T06:00:14.452Z,11.13
2017-06-24T06:02:41.921Z,9.90
2017-06-24T06:05:09.359Z,9.73
2017-06-24T06:07:36.817Z,9.63
2017-06-24T06:10:05.012Z,9.60
2017-06-24T06:12:32.448Z,8.30
2017-06-24T06:14:59.888Z,9.57
2017-06-24T06:17:27.325Z,10.23
2017-06-24T06:19:54.788Z,11.70
2017-06-24T06:22:22.224Z,8.60
2017-06-24T06:24:49.659Z,8.70
2017-06-24T06:27:17.108Z,9.00
2017-06-24T06:29:44.552Z,8.57
2017-06-24T06:32:12.008Z,10.47
2017-06-24T06:34:39.463Z,9.07
2017-06-24T06:37:06.952Z,10.20
2017-06-24T06:39:35.164Z,10.20
2017-06-24T06:42:02.592Z,9.03
2017-06-24T06:44:30.028Z,8.47
2017-06-24T06:46:57.461Z,8.23
2017-06-24T06:49:24.920Z,8.30
2017-06-24T06:51:52.349Z,7.90
2017-06-24T06:54:19.792Z,7.97
2017-06-24T06:56:47.233Z,7.90
2017-06-24T06:59:14.668Z,8.93
2017-06-24T07:01:42.100Z,8.73
2017-06-24T07:04:10.321Z,8.23
2017-06-24T07:06:37.760Z,8.00
2017-06-24T07:09:05.208Z,8.00
2017-06-24T07:11:32.659Z,8.63
2017-06-24T07:14:00.100Z,8.50
2017-06-24T07:16:27.541Z,7.90
2017-06-24T07:18:55.017Z,10.10
2017-06-24T07:21:23.221Z,12.37
2017-06-24T07:23:50.664Z,9.20
2017-06-24T07:26:18.108Z,7.50
2017-06-24T07:28:45.555Z,8.37
2017-06-24T07:31:12.993Z,7.80
2017-06-24T07:33:40.442Z,7.70
2017-06-24T07:36:07.888Z,8.97
2017-06-24T07:38:35.328Z,8.00
2017-06-24T07:41:02.768Z,8.60
2017-06-24T07:43:30.212Z,8.37
2017-06-24T07:45:57.656Z,8.50
2017-06-24T07:48:25.108Z,9.20
2017-06-24T07:50:52.540Z,7.63
2017-06-24T07:53:19.991Z,8.50
2017-06-24T07:55:47.424Z,10.90
2017-06-24T07:58:14.867Z,8.60
2017-06-24T08:00:42.308Z,8.13
2017-06-24T08:03:09.758Z,8.33
2017-06-24T08:05:37.221Z,8.33
2017-06-24T08:08:04.652Z,7.90
2017-06-24T08:10:32.088Z,8.60
2017-06-24T08:12:59.537Z,14.47
2017-06-24T08:15:26.981Z,8.93
2017-06-24T08:17:54.440Z,9.07
2017-06-24T08:20:21.867Z,7.83
2017-06-24T08:22:49.307Z,8.40
2017-06-24T08:25:16.754Z,8.30
2017-06-24T08:27:44.176Z,9.03
2017-06-24T08:30:11.618Z,9.10
2017-06-24T08:32:39.069Z,9.27
2017-06-24T08:35:06.602Z,7.80
2017-06-24T08:37:34.064Z,8.33
2017-06-24T08:40:01.520Z,8.70
2017-06-24T08:42:28.973Z,10.17
2017-06-24T08:44:57.218Z,8.80
2017-06-24T08:47:24.677Z,9.50
2017-06-24T08:49:52.131Z,9.77
2017-06-24T08:52:20.543Z,8.73
2017-06-24T08:54:47.987Z,8.90
2017-06-24T08:57:15.501Z,9.37
2017-06-24T08:59:43.092Z,9.40
2017-06-24T09:02:10.540Z,7.97
2017-06-24T09:04:37.964Z,8.87
2017-06-24T09:07:05.408Z,9.00
2017-06-24T09:09:32.846Z,8.60
2017-06-24T09:12:00.316Z,9.90
2017-06-24T09:14:27.772Z,9.50
2017-06-24T09:16:55.212Z,9.00
2017-06-24T09:19:23.428Z,9.53
2017-06-24T09:21:50.863Z,10.33
2017-06-24T09:24:18.300Z,10.03
2017-06-24T09:26:45.764Z,9.60
2017-06-24T09:29:13.205Z,9.93
2017-06-24T09:31:41.480Z,8.90
2017-06-24T09:34:08.914Z,7.57
2017-06-24T09:36:36.355Z,9.93
2017-06-24T09:39:03.792Z,9.93
2017-06-24T09:41:31.220Z,8.80
2017-06-24T09:43:58.656Z,8.97
2017-06-24T09:46:26.100Z,9.63
2017-06-24T09:48:53.550Z,10.23
2017-06-24T09:51:20.999Z,11.13
2017-06-24T09:53:48.469Z,9.10
2017-06-24T09:56:15.914Z,9.77
2017-06-24T09:58:43.360Z,9.50
2017-06-24T10:01:10.825Z,10.80
2017-06-24T10:03:38.300Z,9.40
2017-06-24T10:06:05.755Z,9.60
2017-06-24T10:08:33.201Z,10.03
2017-06-24T10:11:00.636Z,10.70
2017-06-24T10:13:28.070Z,9.10
2017-06-24T10:15:55.504Z,10.47
2017-06-24T10:18:22.945Z,9.60
2017-06-24T10:20:50.379Z,9.53
2017-06-24T10:23:18.596Z,11.10
2017-06-24T10:25:46.093Z,10.80
2017-06-24T10:28:13.541Z,11.37
2017-06-24T10:30:40.993Z,10.90
2017-06-24T10:33:08.420Z,11.10
2017-06-24T10:35:35.860Z,9.83
2017-06-24T10:38:03.305Z,10.30
2017-06-24T10:40:30.773Z,10.67
2017-06-24T10:42:58.215Z,10.57
2017-06-24T10:45:25.663Z,9.57
2017-06-24T10:47:53.110Z,10.80
2017-06-24T10:50:20.541Z,11.73
2017-06-24T10:52:48.048Z,9.90
2017-06-24T10:55:16.375Z,11.03
2017-06-24T10:57:43.904Z,10.07
2017-06-24T11:00:11.339Z,11.13
2017-06-24T11:02:38.782Z,9.37
2017-06-24T11:05:06.244Z,10.13
2017-06-24T11:07:33.715Z,10.40
2017-06-24T11:10:01.928Z,10.67
2017-06-24T11:12:29.373Z,9.90
2017-06-24T11:14:56.840Z,10.90
2017-06-24T11:17:24.293Z,10.30
2017-06-24T11:19:51.728Z,9.83
2017-06-24T11:22:19.167Z,10.40
2017-06-24T11:24:46.641Z,10.70
2017-06-24T11:27:14.845Z,11.17
2017-06-24T11:29:42.308Z,10.97
2017-06-24T11:32:09.752Z,10.23
2017-06-24T11:34:37.196Z,11.00
2017-06-24T11:37:04.655Z,11.03
2017-06-24T11:39:32.108Z,10.27
2017-06-24T11:42:00.336Z,10.70
2017-06-24T11:44:27.797Z,11.47
2017-06-24T11:46:55.245Z,11.30
2017-06-24T11:49:22.725Z,10.07
2017-06-24T11:51:50.166Z,12.10
2017-06-24T11:54:17.659Z,10.63
2017-06-24T11:56:45.097Z,14.20
2017-06-24T11:59:12.549Z,11.17
2017-06-24T12:01:39.976Z,11.10
2017-06-24T12:04:07.422Z,10.43
2017-06-24T12:06:34.872Z,11.00
2017-06-24T12:09:02.316Z,11.20
2017-06-24T12:11:29.761Z,11.90
2017-06-24T12:13:57.195Z,11.60
2017-06-24T12:16:24.656Z,11.00
2017-06-24T12:18:52.092Z,10.00
2017-06-24T12:21:19.537Z,11.97
2017-06-24T12:23:46.969Z,9.90
2017-06-24T12:26:14.433Z,11.17
2017-06-24T12:28:41.904Z,12.17
2017-06-24T12:31:10.108Z,11.10
2017-06-24T12:33:37.545Z,11.40
2017-06-24T12:36:05.008Z,11.33
2017-06-24T12:38:32.460Z,10.40
2017-06-24T12:40:59.892Z,10.57
2017-06-24T12:43:27.337Z,11.40
2017-06-24T12:45:54.780Z,11.30
2017-06-24T12:48:22.215Z,11.30
2017-06-24T12:50:49.663Z,11.87
2017-06-24T12:53:17.115Z,10.13
2017-06-24T12:55:44.567Z,11.03
2017-06-24T12:58:12.903Z,12.77
2017-06-24T13:00:40.337Z,10.80
2017-06-24T13:03:07.780Z,11.23
2017-06-24T13:05:35.219Z,10.93
2017-06-24T13:08:02.657Z,10.50
2017-06-24T13:10:30.100Z,12.40
2017-06-24T13:12:58.436Z,11.30
2017-06-24T13:15:25.880Z,10.77
2017-06-24T13:17:53.344Z,10.60
2017-06-24T13:20:20.776Z,10.80
2017-06-24T13:22:48.247Z,11.13
2017-06-24T13:25:15.686Z,11.37
2017-06-24T13:27:43.171Z,11.50
2017-06-24T13:30:11.389Z,11.80
2017-06-24T13:32:38.835Z,11.37
2017-06-24T13:35:06.281Z,11.73
2017-06-24T13:37:33.722Z,10.73
2017-06-24T13:40:01.164Z,11.00
2017-06-24T13:42:28.596Z,9.20
2017-06-24T13:44:56.049Z,10.90
2017-06-24T13:47:23.524Z,11.13
2017-06-24T13:49:51.841Z,11.10
2017-06-24T13:52:19.264Z,11.20
2017-06-24T13:54:46.764Z,11.10
2017-06-24T13:57:14.211Z,10.50
2017-06-24T13:59:41.644Z,10.83
2017-06-24T14:02:09.086Z,10.70
2017-06-24T14:04:36.530Z,10.67
2017-06-24T14:07:03.987Z,10.83
2017-06-24T14:09:31.440Z,10.00
2017-06-24T14:11:59.645Z,11.20
2017-06-24T14:14:27.088Z,10.17
2017-06-24T14:16:54.525Z,10.27
2017-06-24T14:19:22.079Z,10.80
2017-06-24T14:21:49.503Z,10.80
2017-06-24T14:24:17.072Z,10.60
2017-06-24T14:26:44.507Z,10.20
2017-06-24T14:29:11.948Z,10.20
2017-06-24T14:31:39.387Z,10.00
2017-06-24T14:34:06.831Z,12.57
2017-06-24T14:36:34.296Z,11.93
2017-06-24T14:39:01.731Z,13.20
2017-06-24T14:41:29.208Z,11.87
2017-06-24T14:43:57.408Z,11.30
2017-06-24T14:46:24.848Z,10.80
2017-06-24T14:48:52.292Z,11.10
2017-06-24T14:51:19.734Z,11.67
2017-06-24T14:53:47.188Z,11.80
2017-06-24T14:56:14.622Z,14.20
2017-06-24T14:58:42.076Z,11.07
2017-06-24T15:01:09.509Z,12.37
2017-06-24T15:03:36.948Z,11.20
2017-06-24T15:06:04.398Z,12.70
2017-06-24T15:08:31.832Z,13.17
2017-06-24T15:10:59.324Z,10.97
2017-06-24T15:13:26.757Z,11.27
2017-06-24T15:15:54.200Z,10.90
2017-06-24T15:18:21.646Z,12.13
2017-06-24T15:20:49.078Z,11.57
2017-06-24T15:23:16.527Z,10.10
2017-06-24T15:25:44.015Z,10.70
2017-06-24T15:28:11.460Z,11.57
2017-06-24T15:30:38.892Z,12.10
2017-06-24T15:33:06.367Z,10.53
2017-06-24T15:35:33.805Z,10.40
2017-06-24T15:38:01.236Z,10.80
2017-06-24T15:40:28.680Z,10.20
2017-06-24T15:42:56.128Z,12.50
2017-06-24T15:45:23.575Z,10.13
2017-06-24T15:47:51.001Z,11.20
2017-06-24T15:50:18.444Z,11.10
2017-06-24T15:52:46.001Z,10.50
2017-06-24T15:55:14.267Z,12.00
2017-06-24T15:57:41.708Z,11.40
2017-06-24T16:00:09.164Z,11.50
2017-06-24T16:02:36.619Z,11.10
2017-06-24T16:05:04.052Z,11.70
2017-06-24T16:07:31.497Z,13.43
2017-06-24T16:09:58.936Z,12.17
2017-06-24T16:12:26.376Z,10.37
2017-06-24T16:14:53.816Z,11.23
2017-06-24T16:17:21.276Z,11.83
2017-06-24T16:19:48.713Z,11.30
2017-06-24T16:22:16.161Z,11.23
2017-06-24T16:24:43.606Z,11.00
2017-06-24T16:27:11.046Z,11.23
2017-06-24T16:29:38.489Z,11.13
2017-06-24T16:32:06.976Z,10.77
2017-06-24T16:34:34.417Z,11.53
2017-06-24T16:37:01.855Z,12.43
2017-06-24T16:39:29.288Z,11.20
2017-06-24T16:41:56.764Z,10.87
2017-06-24T16:44:24.964Z,11.30
2017-06-24T16:46:52.432Z,11.63
2017-06-24T16:49:19.868Z,12.03
2017-06-24T16:51:47.312Z,11.70
2017-06-24T16:54:15.663Z,11.20
2017-06-24T16:56:43.092Z,10.40
2017-06-24T16:59:10.532Z,10.37
2017-06-24T17:01:37.979Z,10.90
2017-06-24T17:04:05.408Z,10.33
2017-06-24T17:06:32.841Z,10.03
2017-06-24T17:09:00.294Z,10.37
2017-06-24T17:11:27.724Z,10.70
2017-06-24T17:13:55.181Z,11.90
2017-06-24T17:16:22.619Z,10.33
2017-06-24T17:18:50.063Z,10.90
2017-06-24T17:21:17.502Z,10.23
2017-06-24T17:23:44.939Z,10.93
2017-06-24T17:26:12.385Z,9.63
2017-06-24T17:28:39.821Z,10.57
2017-06-24T17:31:07.263Z,10.60
2017-06-24T17:33:34.741Z,9.97
2017-06-24T17:36:02.223Z,10.67
2017-06-24T17:38:29.660Z,11.00
2017-06-24T17:40:57.095Z,9.80
2017-06-24T17:43:24.547Z,9.67
2017-06-24T17:45:52.755Z,11.03
2017-06-24T17:48:20.201Z,10.30
2017-06-24T17:50:47.658Z,9.57
2017-06-24T17:53:15.094Z,9.83
2017-06-24T17:55:42.528Z,10.50
2017-06-24T17:58:09.956Z,9.90
2017-06-24T18:00:37.393Z,10.40
2017-06-24T18:03:04.832Z,9.17
2017-06-24T18:05:32.281Z,9.13
2017-06-24T18:07:59.713Z,9.50
2017-06-24T18:10:27.962Z,10.00
2017-06-24T18:12:55.387Z,9.40
2017-06-24T18:15:22.839Z,8.70
2017-06-24T18:17:50.272Z,9.50
2017-06-24T18:20:17.709Z,8.80
2017-06-24T18:22:45.212Z,8.30
2017-06-24T18:25:12.671Z,8.60
2017-06-24T18:27:40.111Z,9.00
2017-06-24T18:30:07.561Z,9.10
2017-06-24T18:32:35.024Z,8.60
2017-06-24T18:35:02.464Z,9.00
2017-06-24T18:37:29.911Z,9.43
2017-06-24T18:39:57.345Z,12.00
2017-06-24T18:42:24.784Z,11.80
2017-06-24T18:44:52.224Z,11.80
2017-06-24T18:47:19.758Z,12.80
2017-06-24T18:49:47.198Z,12.50
2017-06-24T18:52:14.632Z,11.80
2017-06-24T18:54:42.081Z,11.53
2017-06-24T18:57:09.516Z,11.80
2017-06-24T18:59:36.971Z,12.30
2017-06-24T19:02:04.424Z,11.50
2017-06-24T19:04:31.860Z,12.23
2017-06-24T19:06:59.309Z,12.90
2017-06-24T19:09:26.748Z,12.27
2017-06-24T19:11:54.217Z,12.30
2017-06-24T19:14:21.657Z,12.90
2017-06-24T19:16:49.109Z,14.13
2017-06-24T19:19:16.553Z,12.93
2017-06-24T19:21:43.985Z,11.80
2017-06-24T19:24:11.424Z,12.20
2017-06-24T19:26:38.861Z,12.13
2017-06-24T19:29:06.311Z,12.30
2017-06-24T19:31:33.748Z,12.07
2017-06-24T19:34:01.219Z,13.07
2017-06-24T19:36:29.425Z,12.80
2017-06-24T19:38:56.862Z,13.83
2017-06-24T19:41:24.336Z,12.10
2017-06-24T19:43:51.779Z,11.90
2017-06-24T19:46:19.220Z,12.70
2017-06-24T19:48:46.655Z,13.07
2017-06-24T19:51:14.111Z,13.03
2017-06-24T19:53:41.556Z,11.23
2017-06-24T19:56:08.988Z,9.00
2017-06-24T19:58:36.422Z,8.17
2017-06-24T20:01:03.857Z,8.17
2017-06-24T20:03:31.298Z,7.40
2017-06-24T20:05:58.725Z,8.10
2017-06-24T20:08:26.170Z,7.97
2017-06-24T20:10:53.600Z,7.70
2017-06-24T20:13:21.036Z,8.37
2017-06-24T20:15:48.480Z,7.10
2017-06-24T20:18:15.940Z,7.60
2017-06-24T20:20:43.367Z,7.00
2017-06-24T20:23:10.818Z,10.00
2017-06-24T20:25:38.264Z,22.57
2017-06-24T20:28:05.744Z,11.43
2017-06-24T20:30:33.176Z,7.10
2017-06-24T20:33:00.915Z,7.80
2017-06-24T20:35:28.339Z,7.53
2017-06-24T20:37:56.600Z,6.70
2017-06-24T20:40:25.376Z,7.07
2017-06-24T20:42:52.805Z,7.80
2017-06-24T20:45:20.232Z,6.00
2017-06-24T20:47:48.442Z,7.23
2017-06-24T20:50:15.896Z,7.30
2017-06-24T20:52:43.331Z,7.57
2017-06-24T20:55:10.763Z,8.17
2017-06-24T20:57:38.199Z,6.50
2017-06-24T21:00:40.660Z,6.67
2017-06-24T21:03:08.106Z,6.20
2017-06-24T21:05:35.530Z,9.30
2017-06-24T21:08:02.963Z,7.23
2017-06-24T21:10:30.401Z,6.80
2017-06-24T21:12:57.838Z,6.33
2017-06-24T21:15:26.070Z,7.30
2017-06-24T21:17:53.492Z,7.20
2017-06-24T21:20:20.935Z,5.93
2017-06-24T21:22:48.364Z,6.83
2017-06-24T21:25:15.798Z,6.07
2017-06-24T21:27:43.328Z,5.63
2017-06-24T21:30:10.758Z,6.53
2017-06-24T21:32:38.220Z,6.20
2017-06-24T21:35:05.730Z,6.60
2017-06-24T21:37:33.948Z,7.00
2017-06-24T21:40:01.376Z,7.40
2017-06-24T21:42:28.815Z,7.40
2017-06-24T21:44:56.248Z,7.70
2017-06-24T21:47:23.704Z,6.37
2017-06-24T21:49:51.136Z,7.03
2017-06-24T21:52:18.567Z,7.40
2017-06-24T21:54:46.000Z,6.70
2017-06-24T21:57:14.192Z,8.30
2017-06-24T21:59:41.625Z,7.70
2017-06-24T22:02:09.083Z,7.23
2017-06-24T22:04:36.596Z,7.63
2017-06-24T22:07:04.048Z,7.80
2017-06-24T22:09:31.476Z,8.50
2017-06-24T22:11:58.928Z,8.20
2017-06-24T22:14:26.361Z,8.47
2017-06-24T22:16:53.851Z,9.33
2017-06-24T22:19:21.293Z,9.50
2017-06-24T22:21:48.732Z,10.50
2017-06-24T22:24:16.450Z,9.33
2017-06-24T22:26:43.912Z,10.07
2017-06-24T22:29:11.371Z,11.77
2017-06-24T22:31:38.832Z,10.60
2017-06-24T22:34:06.271Z,12.67
2017-06-24T22:36:33.737Z,13.53
2017-06-24T22:39:01.936Z,14.10
2017-06-24T22:41:29.377Z,12.57
2017-06-24T22:43:56.824Z,11.60
2017-06-24T22:46:24.259Z,10.50
2017-06-24T22:48:51.709Z,9.90
2017-06-24T22:51:19.148Z,9.93
2017-06-24T22:53:46.580Z,9.80
2017-06-24T22:56:14.024Z,10.40
2017-06-24T22:58:41.536Z,9.77
2017-06-24T23:01:09.744Z,9.93
2017-06-24T23:03:37.176Z,10.27
2017-06-24T23:06:04.638Z,9.00
2017-06-24T23:08:32.063Z,10.63
2017-06-24T23:10:59.495Z,11.50
2017-06-24T23:13:26.945Z,11.20
2017-06-24T23:15:54.384Z,12.30
2017-06-24T23:18:21.828Z,13.17
2017-06-24T23:20:49.262Z,11.90
2017-06-24T23:23:16.692Z,11.90
2017-06-24T23:25:44.896Z,11.43
2017-06-24T23:28:12.340Z,11.53
2017-06-24T23:30:39.784Z,10.93
2017-06-24T23:33:07.226Z,12.13
2017-06-24T23:35:34.687Z,13.40
2017-06-24T23:38:02.145Z,11.77
2017-06-24T23:40:29.576Z,13.03
2017-06-24T23:42:57.017Z,9.87
2017-06-24T23:45:24.464Z,10.00
2017-06-24T23:47:51.899Z,9.53
2017-06-24T23:50:19.327Z,10.97
2017-06-24T23:52:46.788Z,9.17
2017-06-24T23:55:14.221Z,11.47
2017-06-24T23:57:41.656Z,9.83
